DUH weather

Toledo Suburban Airport
Lambertville, Michigan, United States

Public forecast

Using degrees Fahrenheit for public forecast. Weather courtesy of forecast.io.

Current aviation weather report (METAR) for Toledo Suburban Airport

Retrieved 2020/05/29 07:35 UTC (7 minutes ago):

KDUH 290735Z AUTO 00000KT 10SM SCT120 19/17 A2983 RMK AO2 T01850169

Closest aviation forecast (TAF) to Toledo Suburban Airport

Closest forecast is Toledo Express Airport, 11.3 nm (20.9 km) SW. Retrieved 2020/05/29 06:24 UTC (1 hour ago):

TAF KTOL 290521Z 2906/3006 22007KT P6SM SCT110 FM291000 25011KT P6SM -SHRA SCT005 BKN020 FM291800 30011G20KT P6SM -SHRA SCT005 OVC025 FM292100 30008KT P6SM SCT020 SCT040